createdAt,value
2022-12-01T00:00:37.523Z,96.42
2022-12-01T00:01:37.571Z,96.31
2022-12-01T00:02:37.599Z,96.42
2022-12-01T00:03:37.495Z,96.42
2022-12-01T00:04:37.479Z,96.42
2022-12-01T00:05:37.465Z,96.42
2022-12-01T00:06:37.436Z,96.42
2022-12-01T00:07:37.481Z,96.52
2022-12-01T00:08:37.433Z,96.31
2022-12-01T00:09:37.418Z,96.42
2022-12-01T00:10:37.401Z,96.52
2022-12-01T00:11:37.391Z,96.36
2022-12-01T00:12:37.359Z,96.46
2022-12-01T00:13:37.352Z,96.56
2022-12-01T00:14:37.336Z,96.56
2022-12-01T00:15:37.339Z,96.67
2022-12-01T00:16:37.351Z,96.88
2022-12-01T00:17:37.312Z,97.13
2022-12-01T00:18:37.303Z,97.34
2022-12-01T00:19:37.280Z,97.55
2022-12-01T00:20:37.265Z,97.75
2022-12-01T00:21:37.289Z,97.86
2022-12-01T00:22:37.243Z,97.86
2022-12-01T00:23:37.240Z,97.97
2022-12-01T00:24:37.208Z,97.81
2022-12-01T00:25:37.219Z,97.61
2022-12-01T00:26:37.208Z,97.40
2022-12-01T00:27:37.193Z,97.30
2022-12-01T00:28:37.817Z,97.19
2022-12-01T00:29:37.144Z,97.34
2022-12-01T00:30:37.215Z,97.40
2022-12-01T00:31:37.335Z,97.34
2022-12-01T00:32:37.112Z,97.55
2022-12-01T00:33:37.118Z,97.61
2022-12-01T00:34:37.097Z,97.71
2022-12-01T00:35:37.114Z,97.61
2022-12-01T00:36:37.081Z,97.30
2022-12-01T00:37:37.053Z,97.09
2022-12-01T00:38:37.091Z,97.09
2022-12-01T00:39:37.024Z,97.34
2022-12-01T00:40:37.058Z,97.44
2022-12-01T00:41:37.005Z,97.55
2022-12-01T00:42:36.992Z,97.75
2022-12-01T00:43:36.987Z,97.97
2022-12-01T00:44:36.973Z,97.86
2022-12-01T00:45:36.995Z,97.81
2022-12-01T00:46:36.970Z,97.71
2022-12-01T00:47:36.918Z,97.61
2022-12-01T00:48:36.911Z,97.40
2022-12-01T00:49:36.902Z,97.30
2022-12-01T00:50:36.892Z,97.40
2022-12-01T00:51:36.897Z,97.40
2022-12-01T00:52:36.893Z,97.50
2022-12-01T00:53:37.024Z,97.30
2022-12-01T00:54:36.850Z,97.40
2022-12-01T00:55:36.842Z,97.30
2022-12-01T00:56:36.845Z,97.19
2022-12-01T00:57:36.833Z,97.09
2022-12-01T00:58:36.797Z,97.19
2022-12-01T00:59:36.803Z,96.98
2022-12-01T01:00:36.767Z,96.98
2022-12-01T01:01:36.806Z,96.98
2022-12-01T01:02:36.829Z,97.09
2022-12-01T01:03:36.714Z,96.88
2022-12-01T01:04:36.718Z,96.98
2022-12-01T01:05:36.716Z,97.09
2022-12-01T01:06:36.704Z,96.67
2022-12-01T01:07:36.725Z,96.46
2022-12-01T01:08:36.663Z,96.56
2022-12-01T01:09:36.651Z,96.56
2022-12-01T01:10:36.654Z,96.19
2022-12-01T01:11:36.663Z,96.30
2022-12-01T01:12:36.614Z,96.50
2022-12-01T01:13:36.638Z,96.71
2022-12-01T01:14:36.588Z,96.82
2022-12-01T01:15:36.593Z,96.82
2022-12-01T01:16:36.621Z,96.50
2022-12-01T01:17:36.547Z,96.40
2022-12-01T01:18:36.540Z,96.40
2022-12-01T01:19:36.589Z,96.40
2022-12-01T01:20:36.516Z,96.40
2022-12-01T01:21:36.501Z,96.30
2022-12-01T01:22:36.535Z,96.50
2022-12-01T01:23:36.487Z,96.61
2022-12-01T01:24:36.466Z,96.82
2022-12-01T01:25:36.451Z,96.82
2022-12-01T01:26:36.471Z,96.92
2022-12-01T01:27:36.492Z,96.50
2022-12-01T01:28:36.442Z,96.40
2022-12-01T01:29:36.401Z,96.61
2022-12-01T01:30:36.438Z,96.82
2022-12-01T01:31:36.378Z,96.86
2022-12-01T01:32:36.383Z,96.97
2022-12-01T01:33:36.347Z,97.03
2022-12-01T01:34:36.337Z,96.92
2022-12-01T01:35:36.367Z,97.13
2022-12-01T01:36:36.325Z,97.03
2022-12-01T01:37:36.303Z,96.61
2022-12-01T01:38:36.316Z,96.61
2022-12-01T01:39:36.274Z,96.40
2022-12-01T01:40:36.277Z,96.50
2022-12-01T01:41:36.244Z,96.50
2022-12-01T01:42:36.248Z,96.50
2022-12-01T01:43:36.234Z,96.61
2022-12-01T01:44:36.212Z,96.82
2022-12-01T01:45:36.238Z,96.71
2022-12-01T01:46:36.219Z,96.40
2022-12-01T01:47:36.184Z,96.40
2022-12-01T01:48:36.199Z,96.50
2022-12-01T01:49:36.148Z,96.40
2022-12-01T01:50:36.180Z,96.19
2022-12-01T01:51:36.140Z,96.25
2022-12-01T01:52:36.126Z,96.25
2022-12-01T01:53:36.097Z,96.15
2022-12-01T01:54:36.138Z,96.04
2022-12-01T01:55:36.089Z,96.09
2022-12-01T01:56:36.091Z,96.30
2022-12-01T01:57:36.047Z,96.36
2022-12-01T01:58:36.044Z,96.25
2022-12-01T01:59:36.022Z,96.25
2022-12-01T02:00:36.028Z,96.25
2022-12-01T02:01:36.069Z,96.15
2022-12-01T02:02:36.026Z,96.04
2022-12-01T02:03:35.967Z,96.15
2022-12-01T02:04:35.973Z,96.15
2022-12-01T02:05:35.976Z,96.04
2022-12-01T02:06:35.958Z,95.94
2022-12-01T02:07:36.013Z,95.94
2022-12-01T02:08:35.928Z,95.94
2022-12-01T02:09:35.938Z,96.04
2022-12-01T02:10:35.885Z,96.04
2022-12-01T02:11:35.892Z,95.83
2022-12-01T02:12:35.876Z,95.94
2022-12-01T02:13:35.844Z,95.94
2022-12-01T02:14:35.856Z,96.09
2022-12-01T02:15:35.827Z,96.19
2022-12-01T02:16:35.888Z,96.19
2022-12-01T02:17:41.364Z,96.50
2022-12-01T02:18:36.792Z,96.61
2022-12-01T02:19:35.800Z,96.71
2022-12-01T02:20:35.799Z,97.03
2022-12-01T02:21:35.792Z,96.92
2022-12-01T02:22:35.750Z,96.82
2022-12-01T02:23:35.792Z,96.71
2022-12-01T02:24:35.721Z,96.61
2022-12-01T02:25:35.709Z,96.71
2022-12-01T02:26:35.725Z,96.82
2022-12-01T02:27:35.729Z,96.61
2022-12-01T02:28:35.668Z,96.40
2022-12-01T02:29:35.652Z,96.50
2022-12-01T02:30:35.712Z,96.30
2022-12-01T02:31:35.642Z,96.50
2022-12-01T02:32:35.645Z,96.71
2022-12-01T02:33:35.597Z,96.71
2022-12-01T02:34:35.637Z,96.61
2022-12-01T02:35:35.575Z,96.40
2022-12-01T02:36:35.581Z,96.40
2022-12-01T02:37:35.550Z,96.50
2022-12-01T02:38:35.568Z,96.61
2022-12-01T02:39:35.548Z,96.71
2022-12-01T02:40:35.546Z,96.71
2022-12-01T02:41:35.535Z,96.61
2022-12-01T02:42:35.504Z,96.61
2022-12-01T02:43:35.469Z,96.50
2022-12-01T02:44:35.470Z,96.61
2022-12-01T02:45:35.457Z,96.50
2022-12-01T02:46:35.550Z,96.40
2022-12-01T02:47:35.419Z,96.40
2022-12-01T02:48:35.413Z,96.30
2022-12-01T02:49:35.401Z,96.40
2022-12-01T02:50:35.404Z,96.40
2022-12-01T02:51:35.384Z,96.61
2022-12-01T02:52:35.398Z,96.71
2022-12-01T02:53:35.343Z,96.61
2022-12-01T02:54:35.348Z,96.61
2022-12-01T02:55:35.314Z,96.71
2022-12-01T02:57:34.466Z,96.71
2022-12-01T02:58:34.452Z,96.82
2022-12-01T02:59:34.450Z,96.92
2022-12-01T03:00:34.442Z,96.92
2022-12-01T03:01:34.531Z,96.82
2022-12-01T03:02:34.479Z,96.82
2022-12-01T03:03:34.381Z,96.82
2022-12-01T03:04:34.392Z,96.82
2022-12-01T03:05:34.360Z,96.82
2022-12-01T03:06:34.365Z,96.82
2022-12-01T03:07:34.404Z,96.61
2022-12-01T03:08:34.331Z,96.50
2022-12-01T03:09:34.322Z,96.40
2022-12-01T03:10:34.317Z,96.30
2022-12-01T03:11:34.288Z,96.30
2022-12-01T03:12:34.287Z,96.30
2022-12-01T03:13:34.265Z,96.30
2022-12-01T03:14:34.275Z,96.30
2022-12-01T03:15:34.305Z,96.23
2022-12-01T03:16:34.273Z,96.55
2022-12-01T03:17:34.235Z,96.86
2022-12-01T03:18:34.215Z,97.07
2022-12-01T03:19:34.186Z,97.17
2022-12-01T03:20:34.195Z,97.28
2022-12-01T03:21:34.196Z,96.97
2022-12-01T03:22:34.162Z,97.07
2022-12-01T03:23:34.134Z,97.17
2022-12-01T03:24:34.145Z,96.97
2022-12-01T03:25:34.120Z,96.97
2022-12-01T03:26:34.122Z,96.97
2022-12-01T03:27:34.093Z,96.97
2022-12-01T03:28:34.101Z,96.97
2022-12-01T03:29:34.061Z,96.76
2022-12-01T03:30:34.064Z,96.66
2022-12-01T03:31:34.080Z,96.66
2022-12-01T03:32:34.043Z,96.66
2022-12-01T03:33:34.018Z,96.66
2022-12-01T03:34:34.029Z,96.44
2022-12-01T03:35:33.989Z,96.34
2022-12-01T03:36:34.000Z,96.34
2022-12-01T03:37:33.977Z,96.34
2022-12-01T03:38:34.037Z,96.34
2022-12-01T03:39:33.970Z,96.55
2022-12-01T03:40:33.937Z,96.55
2022-12-01T03:41:33.988Z,96.66
2022-12-01T03:42:33.917Z,96.66
2022-12-01T03:43:33.898Z,96.55
2022-12-01T03:44:33.948Z,96.44
2022-12-01T03:45:33.858Z,96.55
2022-12-01T03:46:33.973Z,96.76
2022-12-01T03:47:33.840Z,96.66
2022-12-01T03:48:33.847Z,96.55
2022-12-01T03:49:33.827Z,96.55
2022-12-01T03:50:33.826Z,96.44
2022-12-01T03:51:33.803Z,96.44
2022-12-01T03:52:33.803Z,96.44
2022-12-01T03:53:33.775Z,96.44
2022-12-01T03:54:33.783Z,96.44
2022-12-01T03:55:33.749Z,96.34
2022-12-01T03:56:33.762Z,96.17
2022-12-01T03:57:33.720Z,96.38
2022-12-01T03:58:33.736Z,96.59
2022-12-01T03:59:33.692Z,96.76
2022-12-01T04:00:33.687Z,96.55
2022-12-01T04:01:33.815Z,96.38
2022-12-01T04:02:33.711Z,96.59
2022-12-01T04:03:33.665Z,96.80
2022-12-01T04:04:33.633Z,96.91
2022-12-01T04:05:33.630Z,96.91
2022-12-01T04:06:33.609Z,96.91
2022-12-01T04:07:33.658Z,96.91
2022-12-01T04:08:33.579Z,97.22
2022-12-01T04:09:33.590Z,97.32
2022-12-01T04:10:33.561Z,97.32
2022-12-01T04:11:33.570Z,97.43
2022-12-01T04:12:33.539Z,97.32
2022-12-01T04:13:33.542Z,97.22
2022-12-01T04:14:33.518Z,97.22
2022-12-01T04:15:33.516Z,97.22
2022-12-01T04:16:33.528Z,97.43
2022-12-01T04:17:33.486Z,97.32
2022-12-01T04:18:33.465Z,97.11
2022-12-01T04:19:33.456Z,97.22
2022-12-01T04:20:33.438Z,97.01
2022-12-01T04:21:33.426Z,97.01
2022-12-01T04:22:33.406Z,97.22
2022-12-01T04:23:33.405Z,97.53
2022-12-01T04:24:33.386Z,97.43
2022-12-01T04:25:33.385Z,97.53
2022-12-01T04:26:33.363Z,97.53
2022-12-01T04:27:33.377Z,97.32
2022-12-01T04:28:33.333Z,97.53
2022-12-01T04:29:33.321Z,97.43
2022-12-01T04:30:33.291Z,97.53
2022-12-01T04:31:33.422Z,97.53
2022-12-01T04:32:33.295Z,97.43
2022-12-01T04:33:33.283Z,97.43
2022-12-01T04:34:33.264Z,97.43
2022-12-01T04:35:33.264Z,97.43
2022-12-01T04:36:33.256Z,97.43
2022-12-01T04:37:33.250Z,97.43
2022-12-01T04:38:33.209Z,97.22
2022-12-01T04:39:33.202Z,97.01
2022-12-01T04:40:33.194Z,96.91
2022-12-01T04:41:33.190Z,97.01
2022-12-01T04:42:33.174Z,97.11
2022-12-01T04:43:33.160Z,96.97
2022-12-01T04:44:35.190Z,96.97
2022-12-01T04:45:33.138Z,96.86
2022-12-01T04:46:33.191Z,96.86
2022-12-01T04:47:33.116Z,96.80
2022-12-01T04:48:33.090Z,97.01
2022-12-01T04:49:33.087Z,97.07
2022-12-01T04:50:33.067Z,96.91
2022-12-01T04:51:33.067Z,97.01
2022-12-01T04:52:35.387Z,97.22
2022-12-01T04:53:33.035Z,97.22
2022-12-01T04:54:33.026Z,97.22
2022-12-01T04:55:33.026Z,97.22
2022-12-01T04:56:32.993Z,97.22
2022-12-01T04:57:33.018Z,97.22
2022-12-01T04:58:32.976Z,97.38
2022-12-01T04:59:32.971Z,97.17
2022-12-01T05:00:33.037Z,97.11
2022-12-01T05:01:33.022Z,97.22
2022-12-01T05:02:33.014Z,97.22
2022-12-01T05:03:32.943Z,97.17
2022-12-01T05:04:32.911Z,97.01
2022-12-01T05:05:32.941Z,97.01
2022-12-01T05:06:32.884Z,97.11
2022-12-01T05:07:32.928Z,97.01
2022-12-01T05:08:32.857Z,97.11
2022-12-01T05:09:32.837Z,97.11
2022-12-01T05:10:32.831Z,97.22
2022-12-01T05:11:32.828Z,97.01
2022-12-01T05:12:32.800Z,97.11
2022-12-01T05:13:32.789Z,97.22
2022-12-01T05:14:32.771Z,97.22
2022-12-01T05:15:32.816Z,97.32
2022-12-01T05:16:32.867Z,97.43
2022-12-01T05:17:36.940Z,97.22
2022-12-01T05:18:32.775Z,97.22
2022-12-01T05:19:32.720Z,97.32
2022-12-01T05:20:32.708Z,97.43
2022-12-01T05:21:32.697Z,97.28
2022-12-01T05:23:03.973Z,97.17
2022-12-01T05:23:33.674Z,97.07
2022-12-01T05:24:32.647Z,96.97
2022-12-01T05:25:32.645Z,96.86
2022-12-01T05:26:32.639Z,96.86
2022-12-01T05:27:32.635Z,96.97
2022-12-01T05:28:32.606Z,97.01
2022-12-01T05:29:32.605Z,96.91
2022-12-01T05:30:32.584Z,96.91
2022-12-01T05:31:32.609Z,97.01
2022-12-01T05:32:32.540Z,97.01
2022-12-01T05:33:32.543Z,96.91
2022-12-01T05:34:32.550Z,96.80
2022-12-01T05:35:32.532Z,97.01
2022-12-01T05:36:32.499Z,97.11
2022-12-01T05:37:32.544Z,96.97
2022-12-01T05:38:32.481Z,96.86
2022-12-01T05:39:32.494Z,96.86
2022-12-01T05:40:32.459Z,96.66
2022-12-01T05:41:32.473Z,96.59
2022-12-01T05:42:32.454Z,96.80
2022-12-01T05:43:32.431Z,97.01
2022-12-01T05:44:32.418Z,97.11
2022-12-01T05:45:32.553Z,97.11
2022-12-01T05:46:32.402Z,97.38
2022-12-01T05:47:32.387Z,97.28
2022-12-01T05:48:32.361Z,97.07
2022-12-01T05:49:32.349Z,96.97
2022-12-01T05:50:32.328Z,96.76
2022-12-01T05:51:32.333Z,96.44
2022-12-01T05:52:32.298Z,96.55
2022-12-01T05:53:32.501Z,96.66
2022-12-01T05:54:32.305Z,96.86
2022-12-01T05:55:32.297Z,96.76
2022-12-01T05:56:32.268Z,96.55
2022-12-01T05:57:32.287Z,96.66
2022-12-01T05:58:32.231Z,96.55
2022-12-01T05:59:32.225Z,96.34
2022-12-01T06:00:32.203Z,96.23
2022-12-01T06:01:32.206Z,96.23
2022-12-01T06:02:32.191Z,96.23
2022-12-01T06:03:32.175Z,96.23
2022-12-01T06:04:32.253Z,96.13
2022-12-01T06:05:32.219Z,95.92
2022-12-01T06:06:32.144Z,95.92
2022-12-01T06:07:32.182Z,96.03
2022-12-01T06:08:32.103Z,95.86
2022-12-01T06:09:32.103Z,95.86
2022-12-01T06:10:32.082Z,96.28
2022-12-01T06:11:32.069Z,96.38
2022-12-01T06:12:32.058Z,96.28
2022-12-01T06:13:32.070Z,96.28
2022-12-01T06:14:32.019Z,96.38
2022-12-01T06:15:32.030Z,96.49
2022-12-01T06:16:33.628Z,96.28
2022-12-01T06:17:37.004Z,96.07
2022-12-01T06:18:33.013Z,96.07
2022-12-01T06:19:31.982Z,96.07
2022-12-01T06:20:31.947Z,96.17
2022-12-01T06:21:31.980Z,96.49
2022-12-01T06:22:31.939Z,96.49
2022-12-01T06:23:31.936Z,96.49
2022-12-01T06:24:31.902Z,96.49
2022-12-01T06:25:31.908Z,96.49
2022-12-01T06:26:31.888Z,97.11
2022-12-01T06:27:31.884Z,96.80
2022-12-01T06:28:31.874Z,96.70
2022-12-01T06:29:31.977Z,96.38
2022-12-01T06:30:31.841Z,96.44
2022-12-01T06:31:31.869Z,96.17
2022-12-01T06:32:31.835Z,96.17
2022-12-01T06:33:32.019Z,96.17
2022-12-01T06:34:31.784Z,96.28
2022-12-01T06:35:31.787Z,96.17
2022-12-01T06:36:31.753Z,96.28
2022-12-01T06:37:31.815Z,96.28
2022-12-01T06:38:31.915Z,96.38
2022-12-01T06:39:31.733Z,96.49
2022-12-01T06:40:31.791Z,96.28
2022-12-01T06:41:31.721Z,96.17
2022-12-01T06:42:31.681Z,96.28
2022-12-01T06:43:31.966Z,96.17
2022-12-01T06:44:31.900Z,96.28
2022-12-01T06:45:31.714Z,96.28
2022-12-01T06:46:31.760Z,96.07
2022-12-01T06:47:31.642Z,96.07
2022-12-01T06:48:31.630Z,96.28
2022-12-01T06:49:31.609Z,96.49
2022-12-01T06:50:31.623Z,96.86
2022-12-01T06:51:31.580Z,96.97
2022-12-01T06:52:31.557Z,96.76
2022-12-01T06:53:31.579Z,96.30
2022-12-01T06:54:31.545Z,97.19
2022-12-01T06:55:31.543Z,95.83
2022-12-01T06:56:31.507Z,94.69
2022-12-01T06:57:31.508Z,94.17
2022-12-01T06:58:31.495Z,94.21
2022-12-01T06:59:31.485Z,95.31
2022-12-01T07:00:31.462Z,95.31
2022-12-01T07:01:31.498Z,94.58
2022-12-01T07:02:31.536Z,93.85
2022-12-01T07:03:31.446Z,93.59
2022-12-01T07:04:31.423Z,94.04
2022-12-01T07:05:31.419Z,94.67
2022-12-01T07:06:31.407Z,94.98
2022-12-01T07:07:31.430Z,95.09
2022-12-01T07:08:31.362Z,95.29
2022-12-01T07:09:31.351Z,95.09
2022-12-01T07:10:31.342Z,94.98
2022-12-01T07:11:31.340Z,94.98
2022-12-01T07:12:31.308Z,95.04
2022-12-01T07:13:33.758Z,94.84
2022-12-01T07:14:31.299Z,94.42
2022-12-01T07:15:31.284Z,94.10
2022-12-01T07:16:31.353Z,94.21
2022-12-01T07:17:31.250Z,94.00
2022-12-01T07:18:31.250Z,93.69
2022-12-01T07:19:31.241Z,93.84
2022-12-01T07:20:31.208Z,93.84
2022-12-01T07:21:31.939Z,93.94
2022-12-01T07:22:33.030Z,93.84
2022-12-01T07:23:31.197Z,93.84
2022-12-01T07:24:32.129Z,93.94
2022-12-01T07:25:31.159Z,93.84
2022-12-01T07:26:31.139Z,94.04
2022-12-01T07:27:31.149Z,94.04
2022-12-01T07:28:31.122Z,94.15
2022-12-01T07:29:31.128Z,93.84
2022-12-01T07:30:31.231Z,93.84
2022-12-01T07:31:31.143Z,93.79
2022-12-01T07:32:31.074Z,93.59
2022-12-01T07:33:31.076Z,93.59
2022-12-01T07:34:31.085Z,93.59
2022-12-01T07:35:31.064Z,93.48
2022-12-01T07:36:31.043Z,93.48
2022-12-01T07:37:31.018Z,93.27
2022-12-01T07:38:31.043Z,93.27
2022-12-01T07:39:31.014Z,93.37
2022-12-01T07:40:30.973Z,93.37
2022-12-01T07:41:30.980Z,93.48
2022-12-01T07:42:30.970Z,93.48
2022-12-01T07:43:30.944Z,93.48
2022-12-01T07:44:30.912Z,93.59
2022-12-01T07:45:30.932Z,93.37
2022-12-01T07:46:31.080Z,93.27
2022-12-01T07:47:30.887Z,93.16
2022-12-01T07:48:30.870Z,93.27
2022-12-01T07:49:30.859Z,93.48
2022-12-01T07:50:30.838Z,93.48
2022-12-01T07:51:30.849Z,93.27
2022-12-01T07:52:30.809Z,93.16
2022-12-01T07:53:30.818Z,93.06
2022-12-01T07:54:30.788Z,93.27
2022-12-01T07:55:30.800Z,93.59
2022-12-01T07:56:30.768Z,93.69
2022-12-01T07:57:30.765Z,93.48
2022-12-01T07:58:30.766Z,93.06
2022-12-01T07:59:30.745Z,92.85
2022-12-01T08:00:30.778Z,92.65
2022-12-01T08:01:30.942Z,92.85
2022-12-01T08:02:30.780Z,92.96
2022-12-01T08:03:30.713Z,92.96
2022-12-01T08:04:30.698Z,92.85
2022-12-01T08:05:30.726Z,92.71
2022-12-01T08:06:30.665Z,92.71
2022-12-01T08:07:30.767Z,92.50
2022-12-01T08:08:30.647Z,92.50
2022-12-01T08:09:30.642Z,92.29
2022-12-01T08:10:30.616Z,92.22
2022-12-01T08:11:30.592Z,92.02
2022-12-01T08:12:31.288Z,92.22
2022-12-01T08:13:30.597Z,92.33
2022-12-01T08:14:30.548Z,92.54
2022-12-01T08:15:30.559Z,92.54
2022-12-01T08:16:30.510Z,92.65
2022-12-01T08:17:30.541Z,92.54
2022-12-01T08:18:30.504Z,92.54
2022-12-01T08:19:30.507Z,92.65
2022-12-01T08:20:30.500Z,92.79
2022-12-01T08:21:30.479Z,93.16
2022-12-01T08:22:30.493Z,92.96
2022-12-01T08:23:30.448Z,92.96
2022-12-01T08:24:30.425Z,93.16
2022-12-01T08:25:30.400Z,92.85
2022-12-01T08:26:30.406Z,92.65
2022-12-01T08:27:30.400Z,92.44
2022-12-01T08:28:30.437Z,92.22
2022-12-01T08:29:33.124Z,92.54
2022-12-01T08:30:30.358Z,92.40
2022-12-01T08:31:30.408Z,92.18
2022-12-01T08:32:30.346Z,92.18
2022-12-01T08:33:30.313Z,91.97
2022-12-01T08:34:30.298Z,91.87
2022-12-01T08:35:30.275Z,91.97
2022-12-01T08:36:30.292Z,91.77
2022-12-01T08:37:30.252Z,91.66
2022-12-01T08:38:30.284Z,91.66
2022-12-01T08:39:30.232Z,91.87
2022-12-01T08:40:30.223Z,92.02
2022-12-01T08:41:30.205Z,92.22
2022-12-01T08:42:31.091Z,92.12
2022-12-01T08:43:55.773Z,92.12
2022-12-01T08:44:31.209Z,92.22
2022-12-01T08:45:30.141Z,92.22
2022-12-01T08:46:30.190Z,92.44
2022-12-01T08:47:30.120Z,91.91
2022-12-01T08:48:30.151Z,92.22
2022-12-01T08:49:30.122Z,92.65
2022-12-01T08:50:30.123Z,92.69
2022-12-01T08:51:30.115Z,92.90
2022-12-01T08:52:30.069Z,92.90
2022-12-01T08:53:30.080Z,93.00
2022-12-01T08:54:30.065Z,93.00
2022-12-01T08:55:30.016Z,92.90
2022-12-01T08:56:30.035Z,93.21
2022-12-01T08:57:37.028Z,93.41
2022-12-01T08:58:31.703Z,93.41
2022-12-01T08:59:29.981Z,93.31
2022-12-01T09:00:29.968Z,93.31
2022-12-01T09:01:30.082Z,93.06
2022-12-01T09:02:30.043Z,92.85
2022-12-01T09:03:29.977Z,92.75
2022-12-01T09:04:29.952Z,92.65
2022-12-01T09:05:29.905Z,92.54
2022-12-01T09:06:29.907Z,92.75
2022-12-01T09:07:29.944Z,92.65
2022-12-01T09:08:30.236Z,92.75
2022-12-01T09:09:29.864Z,92.33
2022-12-01T09:10:29.857Z,92.47
2022-12-01T09:11:29.836Z,92.58
2022-12-01T09:12:29.841Z,92.75
2022-12-01T09:13:29.821Z,92.54
2022-12-01T09:14:29.803Z,92.44
2022-12-01T09:15:29.789Z,92.22
2022-12-01T09:16:29.883Z,92.02
2022-12-01T09:17:29.743Z,91.81
2022-12-01T09:18:29.782Z,91.81
2022-12-01T09:19:29.735Z,91.91
2022-12-01T09:20:29.752Z,91.81
2022-12-01T09:21:29.732Z,91.71
2022-12-01T09:22:29.725Z,91.60
2022-12-01T09:23:29.747Z,91.60
2022-12-01T09:24:29.869Z,91.39
2022-12-01T09:25:29.661Z,91.39
2022-12-01T09:26:29.682Z,91.71
2022-12-01T09:27:29.658Z,91.60
2022-12-01T09:28:29.638Z,91.50
2022-12-01T09:29:29.639Z,91.50
2022-12-01T09:30:29.759Z,91.60
2022-12-01T09:31:29.637Z,91.81
2022-12-01T09:32:29.593Z,91.60
2022-12-01T09:33:29.568Z,91.50
2022-12-01T09:34:29.619Z,91.50
2022-12-01T09:35:29.663Z,91.29
2022-12-01T09:36:29.814Z,91.39
2022-12-01T09:37:29.562Z,91.50
2022-12-01T09:38:29.551Z,91.46
2022-12-01T09:39:29.582Z,91.14
2022-12-01T09:40:29.654Z,91.18
2022-12-01T09:41:29.481Z,91.18
2022-12-01T09:42:33.911Z,91.25
2022-12-01T09:43:30.459Z,91.14
2022-12-01T09:44:29.453Z,91.25
2022-12-01T09:45:29.416Z,91.25
2022-12-01T09:46:29.434Z,91.04
2022-12-01T09:47:29.397Z,90.93
2022-12-01T09:48:29.431Z,90.93
2022-12-01T09:49:29.413Z,90.72
2022-12-01T09:50:29.391Z,90.83
2022-12-01T09:51:29.386Z,90.58
2022-12-01T09:52:29.346Z,90.20
2022-12-01T09:53:29.323Z,90.35
2022-12-01T09:54:29.354Z,91.08
2022-12-01T09:55:29.282Z,91.50
2022-12-01T09:56:29.311Z,91.60
2022-12-01T09:57:29.262Z,91.60
2022-12-01T09:58:29.263Z,91.81
2022-12-01T09:59:29.257Z,91.60
2022-12-01T10:00:29.247Z,91.39
2022-12-01T10:01:29.302Z,91.50
2022-12-01T10:02:29.303Z,91.50
2022-12-01T10:03:29.239Z,91.39
2022-12-01T10:04:29.200Z,91.46
2022-12-01T10:05:29.273Z,91.46
2022-12-01T10:06:29.478Z,91.25
2022-12-01T10:07:29.179Z,91.14
2022-12-01T10:08:29.175Z,91.25
2022-12-01T10:09:29.145Z,91.25
2022-12-01T10:10:29.110Z,91.46
2022-12-01T10:11:29.094Z,91.46
2022-12-01T10:12:29.136Z,91.46
2022-12-01T10:13:29.069Z,91.46
2022-12-01T10:14:29.084Z,91.56
2022-12-01T10:15:29.109Z,91.35
2022-12-01T10:16:29.130Z,91.14
2022-12-01T10:17:29.042Z,90.83
2022-12-01T10:18:29.017Z,91.04
2022-12-01T10:19:28.989Z,90.72
2022-12-01T10:20:28.986Z,90.62
2022-12-01T10:21:28.983Z,90.93
2022-12-01T10:22:28.988Z,91.04
2022-12-01T10:23:28.973Z,90.83
2022-12-01T10:24:28.958Z,90.62
2022-12-01T10:25:29.007Z,90.62
2022-12-01T10:26:28.923Z,90.31
2022-12-01T10:27:28.956Z,90.41
2022-12-01T10:28:28.903Z,90.62
2022-12-01T10:29:28.871Z,90.41
2022-12-01T10:30:28.878Z,90.41
2022-12-01T10:31:29.008Z,90.31
2022-12-01T10:32:29.024Z,90.56
2022-12-01T10:33:28.825Z,90.97
2022-12-01T10:34:28.852Z,90.87
2022-12-01T10:35:28.803Z,90.97
2022-12-01T10:36:28.821Z,91.18
2022-12-01T10:37:28.901Z,91.50
2022-12-01T10:38:28.796Z,91.81
2022-12-01T10:39:28.784Z,91.81
2022-12-01T10:40:28.747Z,91.60
2022-12-01T10:41:28.716Z,91.39
2022-12-01T10:42:29.023Z,91.39
2022-12-01T10:43:28.702Z,91.39
2022-12-01T10:44:29.622Z,91.50
2022-12-01T10:45:28.744Z,91.35
2022-12-01T10:46:28.685Z,91.04
2022-12-01T10:47:28.643Z,90.83
2022-12-01T10:48:28.649Z,90.83
2022-12-01T10:49:28.628Z,90.68
2022-12-01T10:50:28.659Z,90.47
2022-12-01T10:51:28.618Z,90.26
2022-12-01T10:52:28.587Z,90.26
2022-12-01T10:53:28.615Z,90.37
2022-12-01T10:54:28.603Z,90.06
2022-12-01T10:55:28.565Z,89.64
2022-12-01T10:56:28.577Z,89.89
2022-12-01T10:57:28.566Z,90.10
2022-12-01T10:58:28.551Z,90.20
2022-12-01T10:59:28.552Z,90.31
2022-12-01T11:00:59.185Z,90.41
2022-12-01T11:01:29.602Z,90.41
2022-12-01T11:02:28.685Z,90.41
2022-12-01T11:03:28.674Z,90.41
2022-12-01T11:04:28.441Z,90.62
2022-12-01T11:05:28.434Z,90.58
2022-12-01T11:06:28.483Z,90.26
2022-12-01T11:07:28.475Z,90.16
2022-12-01T11:08:28.432Z,90.06
2022-12-01T11:09:28.519Z,89.85
2022-12-01T11:10:28.503Z,90.16
2022-12-01T11:11:28.351Z,90.26
2022-12-01T11:12:28.405Z,90.16
2022-12-01T11:13:28.351Z,90.16
2022-12-01T11:14:28.341Z,90.26
2022-12-01T11:15:28.292Z,90.06
2022-12-01T11:16:28.372Z,90.06
2022-12-01T11:17:28.293Z,90.06
2022-12-01T11:18:28.279Z,89.95
2022-12-01T11:19:28.682Z,90.06
2022-12-01T11:20:28.299Z,89.75
2022-12-01T11:21:28.289Z,89.75
2022-12-01T11:22:28.279Z,89.43
2022-12-01T11:23:28.640Z,89.43
2022-12-01T11:24:28.341Z,89.54
2022-12-01T11:25:28.219Z,89.32
2022-12-01T11:26:28.192Z,89.43
2022-12-01T11:27:28.235Z,89.01
2022-12-01T11:28:28.344Z,89.12
2022-12-01T11:29:28.152Z,89.43
2022-12-01T11:30:28.163Z,89.43
2022-12-01T11:31:28.858Z,89.43
2022-12-01T11:32:28.092Z,89.12
2022-12-01T11:33:28.064Z,89.08
2022-12-01T11:34:28.194Z,89.08
2022-12-01T11:35:28.043Z,88.87
2022-12-01T11:36:28.046Z,88.66
2022-12-01T11:37:28.015Z,88.66
2022-12-01T11:38:29.682Z,88.87
2022-12-01T11:39:28.040Z,88.66
2022-12-01T11:40:28.038Z,88.39
2022-12-01T11:41:27.991Z,88.81
2022-12-01T11:42:27.968Z,89.01
2022-12-01T11:43:27.951Z,89.12
2022-12-01T11:44:50.466Z,89.01
2022-12-01T11:45:29.003Z,89.12
2022-12-01T11:46:27.954Z,89.22
2022-12-01T11:47:27.922Z,88.91
2022-12-01T11:48:27.959Z,89.01
2022-12-01T11:49:27.856Z,88.91
2022-12-01T11:50:27.856Z,88.91
2022-12-01T11:51:27.849Z,89.01
2022-12-01T11:52:27.840Z,88.81
2022-12-01T11:53:27.850Z,88.70
2022-12-01T11:54:27.819Z,88.66
2022-12-01T11:55:27.816Z,88.56
2022-12-01T11:56:27.808Z,88.14
2022-12-01T11:57:35.408Z,88.18
2022-12-01T11:58:28.812Z,88.29
2022-12-01T11:59:27.786Z,88.39
2022-12-01T12:00:27.757Z,88.60
2022-12-01T12:01:27.727Z,88.70
2022-12-01T12:02:27.882Z,88.81
2022-12-01T12:03:27.720Z,88.39
2022-12-01T12:04:27.765Z,88.60
2022-12-01T12:05:27.704Z,88.81
2022-12-01T12:06:42.947Z,88.66
2022-12-01T12:07:28.730Z,88.35
2022-12-01T12:08:27.683Z,87.93
2022-12-01T12:09:27.637Z,88.14
2022-12-01T12:10:27.625Z,88.35
2022-12-01T12:11:27.729Z,88.24
2022-12-01T12:12:27.596Z,88.29
2022-12-01T12:13:27.579Z,88.35
2022-12-01T12:14:27.574Z,88.45
2022-12-01T12:15:27.556Z,88.24
2022-12-01T12:16:30.426Z,88.29
2022-12-01T12:17:28.660Z,88.39
2022-12-01T12:18:27.496Z,88.70
2022-12-01T12:19:34.154Z,88.91
2022-12-01T12:20:28.491Z,88.91
2022-12-01T12:21:27.488Z,88.95
2022-12-01T12:22:27.456Z,88.91
2022-12-01T12:23:27.464Z,89.01
2022-12-01T12:24:27.619Z,88.91
2022-12-01T12:25:27.454Z,88.70
2022-12-01T12:26:27.411Z,88.85
2022-12-01T12:27:27.394Z,89.47
2022-12-01T12:28:27.399Z,89.32
2022-12-01T12:29:27.370Z,89.12
2022-12-01T12:30:27.354Z,89.12
2022-12-01T12:31:27.388Z,88.70
2022-12-01T12:32:27.377Z,88.81
2022-12-01T12:33:27.322Z,89.12
2022-12-01T12:34:27.288Z,89.12
2022-12-01T12:35:27.329Z,89.01
2022-12-01T12:36:27.294Z,88.81
2022-12-01T12:37:27.316Z,88.66
2022-12-01T12:38:27.330Z,88.49
2022-12-01T12:39:27.265Z,88.70
2022-12-01T12:40:27.237Z,88.56
2022-12-01T12:41:27.267Z,88.56
2022-12-01T12:42:27.242Z,88.45
2022-12-01T12:43:27.224Z,88.45
2022-12-01T12:44:28.319Z,88.14
2022-12-01T12:45:27.222Z,88.14
2022-12-01T12:46:27.237Z,88.24
2022-12-01T12:47:27.236Z,88.29
2022-12-01T12:48:27.122Z,88.39
2022-12-01T12:49:27.121Z,88.81
2022-12-01T12:50:27.101Z,88.76
2022-12-01T12:51:27.174Z,88.45
2022-12-01T12:52:27.071Z,88.45
2022-12-01T12:53:27.082Z,88.45